sensor_id;sensor_type;location;lat;lon;timestamp;pressure;altitude;pressure_sealevel;temperature;humidity
10176;BME280;18221;38.704;0.152;2024-02-26T00:00:18;97787.66;;;18.23;42.03
10176;BME280;18221;38.704;0.152;2024-02-26T00:02:47;97787.31;;;18.13;41.80
10176;BME280;18221;38.704;0.152;2024-02-26T00:05:14;97787.38;;;18.07;41.71
10176;BME280;18221;38.704;0.152;2024-02-26T00:07:42;97784.56;;;18.20;41.66
10176;BME280;18221;38.704;0.152;2024-02-26T00:10:11;97788.97;;;18.14;41.75
10176;BME280;18221;38.704;0.152;2024-02-26T00:12:39;97783.06;;;17.99;42.09
10176;BME280;18221;38.704;0.152;2024-02-26T00:15:08;97770.00;;;18.09;42.04
10176;BME280;18221;38.704;0.152;2024-02-26T00:17:37;97770.88;;;17.97;42.49
10176;BME280;18221;38.704;0.152;2024-02-26T00:20:07;97765.66;;;18.08;42.35
10176;BME280;18221;38.704;0.152;2024-02-26T00:22:35;97762.31;;;18.13;41.90
10176;BME280;18221;38.704;0.152;2024-02-26T00:25:04;97753.50;;;17.99;42.44
10176;BME280;18221;38.704;0.152;2024-02-26T00:27:32;97750.50;;;17.89;42.59
10176;BME280;18221;38.704;0.152;2024-02-26T00:30:00;97744.50;;;17.87;42.46
10176;BME280;18221;38.704;0.152;2024-02-26T00:32:28;97748.28;;;17.79;42.24
10176;BME280;18221;38.704;0.152;2024-02-26T00:34:57;97749.72;;;17.82;41.81
10176;BME280;18221;38.704;0.152;2024-02-26T00:37:25;97744.28;;;17.88;41.58
10176;BME280;18221;38.704;0.152;2024-02-26T00:39:52;97764.66;;;18.03;41.09
10176;BME280;18221;38.704;0.152;2024-02-26T00:42:20;97746.34;;;17.93;41.21
10176;BME280;18221;38.704;0.152;2024-02-26T00:44:48;97749.81;;;18.00;41.06
10176;BME280;18221;38.704;0.152;2024-02-26T00:47:15;97736.84;;;18.22;40.62
10176;BME280;18221;38.704;0.152;2024-02-26T00:49:43;97739.88;;;18.01;40.94
10176;BME280;18221;38.704;0.152;2024-02-26T01:02:52;97726.19;;;18.09;39.40
10176;BME280;18221;38.704;0.152;2024-02-26T01:05:20;97719.75;;;18.10;39.24
10176;BME280;18221;38.704;0.152;2024-02-26T01:07:48;97732.56;;;18.14;39.09
10176;BME280;18221;38.704;0.152;2024-02-26T01:10:16;97729.97;;;18.01;39.57
10176;BME280;18221;38.704;0.152;2024-02-26T01:12:44;97727.31;;;17.95;39.70
10176;BME280;18221;38.704;0.152;2024-02-26T01:15:12;97714.63;;;18.08;39.22
10176;BME280;18221;38.704;0.152;2024-02-26T01:17:39;97709.56;;;18.18;39.51
10176;BME280;18221;38.704;0.152;2024-02-26T01:20:10;97705.69;;;18.14;39.24
10176;BME280;18221;38.704;0.152;2024-02-26T01:22:38;97713.66;;;18.27;39.11
10176;BME280;18221;38.704;0.152;2024-02-26T01:25:08;97721.00;;;18.14;39.24
10176;BME280;18221;38.704;0.152;2024-02-26T01:27:37;97723.84;;;18.19;39.10
10176;BME280;18221;38.704;0.152;2024-02-26T01:30:06;97721.50;;;17.98;39.15
10176;BME280;18221;38.704;0.152;2024-02-26T01:32:34;97723.09;;;18.05;39.03
10176;BME280;18221;38.704;0.152;2024-02-26T01:35:03;97729.75;;;18.03;39.01
10176;BME280;18221;38.704;0.152;2024-02-26T01:37:32;97734.53;;;17.94;39.24
10176;BME280;18221;38.704;0.152;2024-02-26T01:40:00;97716.91;;;18.05;39.23
10176;BME280;18221;38.704;0.152;2024-02-26T01:42:30;97712.47;;;17.92;39.27
10176;BME280;18221;38.704;0.152;2024-02-26T01:44:58;97712.03;;;17.95;38.46
10176;BME280;18221;38.704;0.152;2024-02-26T01:47:27;97700.16;;;18.09;38.21
10176;BME280;18221;38.704;0.152;2024-02-26T01:49:56;97701.53;;;18.18;38.12
10176;BME280;18221;38.704;0.152;2024-02-26T01:52:24;97687.06;;;18.19;37.72
10176;BME280;18221;38.704;0.152;2024-02-26T01:54:54;97700.81;;;18.29;37.96
10176;BME280;18221;38.704;0.152;2024-02-26T01:57:22;97704.56;;;18.46;37.71
10176;BME280;18221;38.704;0.152;2024-02-26T01:59:50;97704.31;;;18.30;36.87
10176;BME280;18221;38.704;0.152;2024-02-26T02:02:18;97697.75;;;18.51;36.80
10176;BME280;18221;38.704;0.152;2024-02-26T02:04:46;97702.19;;;18.81;36.83
10176;BME280;18221;38.704;0.152;2024-02-26T02:07:13;97707.03;;;18.73;36.29
10176;BME280;18221;38.704;0.152;2024-02-26T02:09:42;97701.22;;;18.76;36.39
10176;BME280;18221;38.704;0.152;2024-02-26T02:12:11;97709.28;;;18.76;36.66
10176;BME280;18221;38.704;0.152;2024-02-26T02:14:39;97705.28;;;18.85;36.67
10176;BME280;18221;38.704;0.152;2024-02-26T02:17:07;97709.16;;;18.89;36.63
10176;BME280;18221;38.704;0.152;2024-02-26T02:19:35;97701.06;;;18.89;36.66
10176;BME280;18221;38.704;0.152;2024-02-26T02:22:05;97696.06;;;18.92;37.00
10176;BME280;18221;38.704;0.152;2024-02-26T02:24:32;97692.72;;;18.97;36.99
10176;BME280;18221;38.704;0.152;2024-02-26T02:27:00;97683.59;;;18.98;36.68
10176;BME280;18221;38.704;0.152;2024-02-26T02:29:29;97668.06;;;18.82;36.75
10176;BME280;18221;38.704;0.152;2024-02-26T02:31:57;97667.53;;;18.91;36.29
10176;BME280;18221;38.704;0.152;2024-02-26T02:34:26;97652.06;;;18.87;36.93
10176;BME280;18221;38.704;0.152;2024-02-26T02:36:55;97661.31;;;18.73;37.38
10176;BME280;18221;38.704;0.152;2024-02-26T02:39:24;97657.44;;;18.69;37.71
10176;BME280;18221;38.704;0.152;2024-02-26T02:41:52;97660.34;;;18.85;37.56
10176;BME280;18221;38.704;0.152;2024-02-26T02:44:20;97661.63;;;18.83;38.24
10176;BME280;18221;38.704;0.152;2024-02-26T02:46:47;97652.66;;;18.89;38.15
10176;BME280;18221;38.704;0.152;2024-02-26T02:49:16;97660.59;;;18.84;38.47
10176;BME280;18221;38.704;0.152;2024-02-26T02:51:44;97658.63;;;18.91;38.78
10176;BME280;18221;38.704;0.152;2024-02-26T02:54:12;97655.66;;;18.81;39.18
10176;BME280;18221;38.704;0.152;2024-02-26T02:56:41;97665.50;;;18.87;39.06
10176;BME280;18221;38.704;0.152;2024-02-26T02:59:09;97658.09;;;18.82;39.05
10176;BME280;18221;38.704;0.152;2024-02-26T03:01:37;97654.53;;;18.70;39.39
10176;BME280;18221;38.704;0.152;2024-02-26T03:04:05;97656.47;;;18.81;39.43
10176;BME280;18221;38.704;0.152;2024-02-26T03:06:33;97648.41;;;18.63;38.91
10176;BME280;18221;38.704;0.152;2024-02-26T03:09:00;97654.66;;;18.75;38.69
10176;BME280;18221;38.704;0.152;2024-02-26T03:11:28;97657.44;;;18.69;38.23
10176;BME280;18221;38.704;0.152;2024-02-26T03:13:57;97646.00;;;18.91;37.75
10176;BME280;18221;38.704;0.152;2024-02-26T03:16:25;97656.84;;;18.85;37.47
10176;BME280;18221;38.704;0.152;2024-02-26T03:18:54;97661.03;;;18.81;37.88
10176;BME280;18221;38.704;0.152;2024-02-26T03:21:22;97653.69;;;18.88;37.75
10176;BME280;18221;38.704;0.152;2024-02-26T03:23:49;97642.63;;;18.96;37.61
10176;BME280;18221;38.704;0.152;2024-02-26T03:26:18;97657.75;;;18.79;37.76
10176;BME280;18221;38.704;0.152;2024-02-26T03:28:45;97656.38;;;18.88;37.61
10176;BME280;18221;38.704;0.152;2024-02-26T03:31:15;97652.13;;;18.98;37.42
10176;BME280;18221;38.704;0.152;2024-02-26T03:33:42;97643.72;;;18.77;37.91
10176;BME280;18221;38.704;0.152;2024-02-26T03:36:10;97648.69;;;18.91;37.60
10176;BME280;18221;38.704;0.152;2024-02-26T03:38:38;97634.50;;;18.84;38.08
10176;BME280;18221;38.704;0.152;2024-02-26T03:41:06;97630.75;;;18.85;38.28
10176;BME280;18221;38.704;0.152;2024-02-26T03:43:34;97632.03;;;18.65;38.54
10176;BME280;18221;38.704;0.152;2024-02-26T03:46:02;97632.47;;;18.80;38.29
10176;BME280;18221;38.704;0.152;2024-02-26T03:48:32;97620.00;;;18.67;37.67
10176;BME280;18221;38.704;0.152;2024-02-26T03:51:00;97620.44;;;18.64;37.50
10176;BME280;18221;38.704;0.152;2024-02-26T03:53:28;97627.25;;;18.67;37.82
10176;BME280;18221;38.704;0.152;2024-02-26T03:55:56;97620.41;;;18.71;37.60
10176;BME280;18221;38.704;0.152;2024-02-26T03:58:24;97616.00;;;18.76;37.62
10176;BME280;18221;38.704;0.152;2024-02-26T04:00:51;97601.63;;;18.64;37.60
10176;BME280;18221;38.704;0.152;2024-02-26T04:03:20;97622.50;;;18.51;37.53
10176;BME280;18221;38.704;0.152;2024-02-26T04:05:52;97614.78;;;18.54;37.76
10176;BME280;18221;38.704;0.152;2024-02-26T04:08:20;97622.34;;;18.64;37.63
10176;BME280;18221;38.704;0.152;2024-02-26T04:10:48;97621.25;;;18.46;37.85
10176;BME280;18221;38.704;0.152;2024-02-26T04:13:17;97619.00;;;18.43;38.02
10176;BME280;18221;38.704;0.152;2024-02-26T04:15:45;97616.28;;;18.50;38.05
10176;BME280;18221;38.704;0.152;2024-02-26T04:18:13;97615.81;;;18.35;38.11
10176;BME280;18221;38.704;0.152;2024-02-26T04:20:41;97613.59;;;18.50;37.90
10176;BME280;18221;38.704;0.152;2024-02-26T04:23:11;97621.53;;;18.63;37.63
10176;BME280;18221;38.704;0.152;2024-02-26T04:25:39;97623.09;;;18.46;37.61
10176;BME280;18221;38.704;0.152;2024-02-26T04:28:06;97615.56;;;18.61;37.16
10176;BME280;18221;38.704;0.152;2024-02-26T04:30:34;97618.09;;;18.74;37.22
10176;BME280;18221;38.704;0.152;2024-02-26T04:33:02;97615.00;;;18.89;37.03
10176;BME280;18221;38.704;0.152;2024-02-26T04:35:30;97622.94;;;18.84;37.06
10176;BME280;18221;38.704;0.152;2024-02-26T04:37:58;97621.56;;;18.93;37.20
10176;BME280;18221;38.704;0.152;2024-02-26T04:40:27;97624.91;;;19.06;37.01
10176;BME280;18221;38.704;0.152;2024-02-26T04:42:55;97634.25;;;19.04;37.09
10176;BME280;18221;38.704;0.152;2024-02-26T04:45:23;97625.97;;;19.05;36.84
10176;BME280;18221;38.704;0.152;2024-02-26T04:47:51;97629.16;;;19.14;36.74
10176;BME280;18221;38.704;0.152;2024-02-26T04:50:19;97632.47;;;19.16;37.05
10176;BME280;18221;38.704;0.152;2024-02-26T04:52:47;97619.00;;;19.16;37.15
10176;BME280;18221;38.704;0.152;2024-02-26T04:55:15;97622.50;;;19.17;37.16
10176;BME280;18221;38.704;0.152;2024-02-26T04:57:45;97615.84;;;19.19;36.99
10176;BME280;18221;38.704;0.152;2024-02-26T05:00:14;97619.16;;;19.21;37.26
10176;BME280;18221;38.704;0.152;2024-02-26T05:02:42;97624.28;;;19.23;37.17
10176;BME280;18221;38.704;0.152;2024-02-26T05:05:10;97613.47;;;19.11;37.36
10176;BME280;18221;38.704;0.152;2024-02-26T05:07:40;97613.47;;;19.11;36.98
10176;BME280;18221;38.704;0.152;2024-02-26T05:10:10;97615.66;;;19.02;36.81
10176;BME280;18221;38.704;0.152;2024-02-26T05:12:38;97614.16;;;19.06;36.89
10176;BME280;18221;38.704;0.152;2024-02-26T05:15:10;97619.78;;;19.05;37.02
10176;BME280;18221;38.704;0.152;2024-02-26T05:17:44;97608.00;;;19.18;36.93
10176;BME280;18221;38.704;0.152;2024-02-26T05:20:12;97608.56;;;19.08;37.20
10176;BME280;18221;38.704;0.152;2024-02-26T05:22:40;97609.59;;;19.07;37.17
10176;BME280;18221;38.704;0.152;2024-02-26T05:25:08;97589.94;;;19.06;37.14
10176;BME280;18221;38.704;0.152;2024-02-26T05:27:36;97585.66;;;19.17;36.80
10176;BME280;18221;38.704;0.152;2024-02-26T05:30:05;97592.28;;;19.03;37.13
10176;BME280;18221;38.704;0.152;2024-02-26T05:32:35;97588.53;;;19.04;37.27
10176;BME280;18221;38.704;0.152;2024-02-26T05:35:03;97587.03;;;19.08;37.26
10176;BME280;18221;38.704;0.152;2024-02-26T05:37:31;97580.13;;;19.12;36.85
10176;BME280;18221;38.704;0.152;2024-02-26T05:39:59;97583.41;;;19.14;36.50
10176;BME280;18221;38.704;0.152;2024-02-26T05:42:30;97590.38;;;19.03;36.41
10176;BME280;18221;38.704;0.152;2024-02-26T05:44:58;97580.69;;;19.02;36.68
10176;BME280;18221;38.704;0.152;2024-02-26T05:47:26;97585.38;;;19.07;36.66
10176;BME280;18221;38.704;0.152;2024-02-26T05:49:55;97579.69;;;19.15;36.63
10176;BME280;18221;38.704;0.152;2024-02-26T05:52:24;97585.06;;;19.15;36.51
10176;BME280;18221;38.704;0.152;2024-02-26T05:54:52;97595.97;;;19.20;36.40
10176;BME280;18221;38.704;0.152;2024-02-26T05:57:20;97596.78;;;19.21;36.49
10176;BME280;18221;38.704;0.152;2024-02-26T05:59:48;97608.38;;;19.21;36.58
10176;BME280;18221;38.704;0.152;2024-02-26T06:02:16;97602.25;;;19.14;36.72
10176;BME280;18221;38.704;0.152;2024-02-26T06:04:43;97593.72;;;19.17;36.73
10176;BME280;18221;38.704;0.152;2024-02-26T06:07:14;97588.94;;;19.19;36.65
10176;BME280;18221;38.704;0.152;2024-02-26T06:09:41;97594.94;;;19.21;36.87
10176;BME280;18221;38.704;0.152;2024-02-26T06:12:09;97588.13;;;19.19;36.72
10176;BME280;18221;38.704;0.152;2024-02-26T06:14:37;97591.03;;;19.17;36.96
10176;BME280;18221;38.704;0.152;2024-02-26T06:17:05;97588.94;;;19.19;36.54
10176;BME280;18221;38.704;0.152;2024-02-26T06:19:33;97586.47;;;19.18;36.43
10176;BME280;18221;38.704;0.152;2024-02-26T06:22:01;97587.75;;;19.15;36.34
10176;BME280;18221;38.704;0.152;2024-02-26T06:24:30;97586.06;;;19.02;37.44
10176;BME280;18221;38.704;0.152;2024-02-26T06:26:58;97583.72;;;19.06;37.82
10176;BME280;18221;38.704;0.152;2024-02-26T06:29:26;97592.41;;;19.08;38.31
10176;BME280;18221;38.704;0.152;2024-02-26T06:31:53;97605.41;;;18.93;39.73
10176;BME280;18221;38.704;0.152;2024-02-26T06:34:21;97602.41;;;18.53;41.45
10176;BME280;18221;38.704;0.152;2024-02-26T06:36:49;97583.00;;;18.26;41.92
10176;BME280;18221;38.704;0.152;2024-02-26T06:39:17;97590.63;;;18.29;41.43
10176;BME280;18221;38.704;0.152;2024-02-26T06:41:46;97596.91;;;18.41;41.31
10176;BME280;18221;38.704;0.152;2024-02-26T06:44:14;97609.38;;;18.36;41.75
10176;BME280;18221;38.704;0.152;2024-02-26T06:46:42;97604.47;;;18.08;42.16
10176;BME280;18221;38.704;0.152;2024-02-26T06:49:10;97607.06;;;17.97;42.87
10176;BME280;18221;38.704;0.152;2024-02-26T06:51:37;97597.13;;;18.22;42.92
10176;BME280;18221;38.704;0.152;2024-02-26T06:54:05;97587.19;;;18.22;42.48
10176;BME280;18221;38.704;0.152;2024-02-26T06:56:33;97574.34;;;18.24;42.26
10176;BME280;18221;38.704;0.152;2024-02-26T06:59:02;97574.53;;;18.47;41.74
10176;BME280;18221;38.704;0.152;2024-02-26T07:01:30;97585.28;;;18.47;41.14
10176;BME280;18221;38.704;0.152;2024-02-26T07:03:58;97597.22;;;18.52;40.76
10176;BME280;18221;38.704;0.152;2024-02-26T07:06:28;97601.97;;;18.56;40.59
10176;BME280;18221;38.704;0.152;2024-02-26T07:08:56;97591.34;;;18.61;40.06
10176;BME280;18221;38.704;0.152;2024-02-26T07:11:24;97595.91;;;18.61;39.84
10176;BME280;18221;38.704;0.152;2024-02-26T07:13:52;97582.59;;;18.47;40.07
10176;BME280;18221;38.704;0.152;2024-02-26T07:16:21;97586.91;;;18.67;39.64
10176;BME280;18221;38.704;0.152;2024-02-26T07:18:48;97589.91;;;18.77;39.39
10176;BME280;18221;38.704;0.152;2024-02-26T07:21:16;97604.09;;;18.84;39.18
10176;BME280;18221;38.704;0.152;2024-02-26T07:23:44;97615.44;;;18.86;39.30
10176;BME280;18221;38.704;0.152;2024-02-26T07:26:12;97609.25;;;18.85;39.22
10176;BME280;18221;38.704;0.152;2024-02-26T07:28:39;97610.44;;;18.89;39.22
10176;BME280;18221;38.704;0.152;2024-02-26T07:31:07;97605.91;;;18.90;38.90
10176;BME280;18221;38.704;0.152;2024-02-26T07:33:36;97595.03;;;18.96;38.53
10176;BME280;18221;38.704;0.152;2024-02-26T07:36:05;97574.72;;;18.82;38.35
10176;BME280;18221;38.704;0.152;2024-02-26T07:38:32;97567.44;;;18.71;37.84
10176;BME280;18221;38.704;0.152;2024-02-26T07:41:02;97556.81;;;18.76;37.49
10176;BME280;18221;38.704;0.152;2024-02-26T07:43:30;97548.44;;;18.84;37.42
10176;BME280;18221;38.704;0.152;2024-02-26T07:45:58;97545.19;;;18.94;37.07
10176;BME280;18221;38.704;0.152;2024-02-26T07:48:26;97547.19;;;18.98;36.55
10176;BME280;18221;38.704;0.152;2024-02-26T07:50:55;97553.66;;;18.97;36.35
10176;BME280;18221;38.704;0.152;2024-02-26T07:53:24;97580.75;;;18.96;36.45
10176;BME280;18221;38.704;0.152;2024-02-26T07:55:51;97566.69;;;19.12;36.06
10176;BME280;18221;38.704;0.152;2024-02-26T07:58:19;97566.13;;;18.92;35.76
10176;BME280;18221;38.704;0.152;2024-02-26T08:00:47;97568.50;;;19.00;35.72
10176;BME280;18221;38.704;0.152;2024-02-26T08:03:15;97578.00;;;19.02;35.49
10176;BME280;18221;38.704;0.152;2024-02-26T08:05:43;97574.22;;;18.74;35.16
10176;BME280;18221;38.704;0.152;2024-02-26T08:08:12;97561.84;;;18.55;34.53
10176;BME280;18221;38.704;0.152;2024-02-26T08:10:40;97560.94;;;18.79;34.39
10176;BME280;18221;38.704;0.152;2024-02-26T08:13:08;97556.44;;;18.73;33.92
10176;BME280;18221;38.704;0.152;2024-02-26T08:15:36;97566.31;;;18.79;33.86
10176;BME280;18221;38.704;0.152;2024-02-26T08:18:05;97567.41;;;18.89;33.93
10176;BME280;18221;38.704;0.152;2024-02-26T08:20:33;97581.06;;;18.88;33.31
10176;BME280;18221;38.704;0.152;2024-02-26T08:23:01;97585.81;;;19.04;33.45
10176;BME280;18221;38.704;0.152;2024-02-26T08:25:30;97573.06;;;18.99;33.23
10176;BME280;18221;38.704;0.152;2024-02-26T08:27:57;97580.94;;;18.83;33.29
10176;BME280;18221;38.704;0.152;2024-02-26T08:30:25;97566.66;;;18.82;33.13
10176;BME280;18221;38.704;0.152;2024-02-26T08:32:53;97564.22;;;18.81;33.04
10176;BME280;18221;38.704;0.152;2024-02-26T08:35:21;97558.94;;;18.74;33.24
10176;BME280;18221;38.704;0.152;2024-02-26T08:37:48;97571.59;;;18.85;33.19
10176;BME280;18221;38.704;0.152;2024-02-26T08:40:16;97571.59;;;18.85;32.92
10176;BME280;18221;38.704;0.152;2024-02-26T08:42:47;97579.00;;;18.90;32.94
10176;BME280;18221;38.704;0.152;2024-02-26T08:45:14;97571.13;;;18.88;32.80
10176;BME280;18221;38.704;0.152;2024-02-26T08:47:44;97585.97;;;18.61;32.62
10176;BME280;18221;38.704;0.152;2024-02-26T08:50:12;97581.53;;;18.85;32.53
10176;BME280;18221;38.704;0.152;2024-02-26T08:52:40;97568.03;;;18.73;32.29
10176;BME280;18221;38.704;0.152;2024-02-26T08:55:08;97549.56;;;18.95;32.09
10176;BME280;18221;38.704;0.152;2024-02-26T08:57:36;97543.03;;;19.14;31.79
10176;BME280;18221;38.704;0.152;2024-02-26T09:00:08;97548.53;;;19.07;31.46
10176;BME280;18221;38.704;0.152;2024-02-26T09:02:35;97552.03;;;18.78;31.71
10176;BME280;18221;38.704;0.152;2024-02-26T09:05:05;97548.63;;;18.71;31.92
10176;BME280;18221;38.704;0.152;2024-02-26T09:07:33;97535.53;;;18.75;31.55
10176;BME280;18221;38.704;0.152;2024-02-26T09:10:01;97537.91;;;18.46;31.53
10176;BME280;18221;38.704;0.152;2024-02-26T09:12:29;97534.97;;;18.55;31.44
10176;BME280;18221;38.704;0.152;2024-02-26T09:14:57;97525.47;;;18.34;31.21
10176;BME280;18221;38.704;0.152;2024-02-26T09:17:26;97543.13;;;18.48;31.48
10176;BME280;18221;38.704;0.152;2024-02-26T09:19:54;97551.34;;;18.46;31.75
10176;BME280;18221;38.704;0.152;2024-02-26T09:22:22;97557.66;;;18.40;31.47
10176;BME280;18221;38.704;0.152;2024-02-26T09:24:50;97564.66;;;18.41;31.38
10176;BME280;18221;38.704;0.152;2024-02-26T09:27:19;97572.13;;;18.21;31.90
10176;BME280;18221;38.704;0.152;2024-02-26T09:29:47;97595.78;;;18.31;31.68
10176;BME280;18221;38.704;0.152;2024-02-26T09:32:15;97583.59;;;18.10;31.79
10176;BME280;18221;38.704;0.152;2024-02-26T09:34:45;97594.91;;;18.37;31.80
10176;BME280;18221;38.704;0.152;2024-02-26T09:37:13;97575.47;;;18.17;32.00
10176;BME280;18221;38.704;0.152;2024-02-26T09:39:41;97571.56;;;18.13;32.21
10176;BME280;18221;38.704;0.152;2024-02-26T09:42:11;97575.94;;;18.32;32.08
10176;BME280;18221;38.704;0.152;2024-02-26T09:44:41;97550.06;;;18.56;31.52
10176;BME280;18221;38.704;0.152;2024-02-26T09:47:12;97564.47;;;18.61;31.56
10176;BME280;18221;38.704;0.152;2024-02-26T09:49:46;97560.56;;;18.75;31.51
10176;BME280;18221;38.704;0.152;2024-02-26T09:52:16;97559.38;;;18.71;33.21
10176;BME280;18221;38.704;0.152;2024-02-26T09:54:47;97550.94;;;18.68;33.77
10176;BME280;18221;38.704;0.152;2024-02-26T09:57:16;97536.16;;;18.59;33.75
10176;BME280;18221;38.704;0.152;2024-02-26T09:59:46;97532.72;;;18.52;33.35
10176;BME280;18221;38.704;0.152;2024-02-26T10:02:17;97529.00;;;18.53;32.54
10176;BME280;18221;38.704;0.152;2024-02-26T10:04:49;97538.84;;;18.59;32.81
10176;BME280;18221;38.704;0.152;2024-02-26T10:07:20;97545.31;;;18.51;32.45
10176;BME280;18221;38.704;0.152;2024-02-26T10:09:48;97557.53;;;18.54;32.08
10176;BME280;18221;38.704;0.152;2024-02-26T10:12:18;97566.47;;;18.47;32.18
10176;BME280;18221;38.704;0.152;2024-02-26T10:14:45;97580.94;;;18.65;32.17
10176;BME280;18221;38.704;0.152;2024-02-26T10:17:13;97577.72;;;18.38;31.97
10176;BME280;18221;38.704;0.152;2024-02-26T10:19:41;97557.84;;;18.21;32.02
10176;BME280;18221;38.704;0.152;2024-02-26T10:22:11;97551.59;;;18.27;31.88
10176;BME280;18221;38.704;0.152;2024-02-26T10:24:38;97552.72;;;18.37;31.82
10176;BME280;18221;38.704;0.152;2024-02-26T10:27:06;97545.00;;;18.23;31.76
10176;BME280;18221;38.704;0.152;2024-02-26T10:29:35;97557.78;;;18.27;31.78
10176;BME280;18221;38.704;0.152;2024-02-26T10:32:04;97557.94;;;18.14;31.59
10176;BME280;18221;38.704;0.152;2024-02-26T10:34:32;97552.63;;;18.44;31.67
10176;BME280;18221;38.704;0.152;2024-02-26T10:37:02;97547.22;;;18.51;31.17
10176;BME280;18221;38.704;0.152;2024-02-26T10:39:31;97556.47;;;18.55;31.08
10176;BME280;18221;38.704;0.152;2024-02-26T10:42:00;97547.22;;;18.51;31.02
10176;BME280;18221;38.704;0.152;2024-02-26T10:44:33;97558.56;;;18.53;30.92
10176;BME280;18221;38.704;0.152;2024-02-26T10:47:02;97559.97;;;18.55;30.99
10176;BME280;18221;38.704;0.152;2024-02-26T10:49:30;97559.06;;;18.43;31.53
10176;BME280;18221;38.704;0.152;2024-02-26T10:51:59;97535.09;;;18.41;31.17
10176;BME280;18221;38.704;0.152;2024-02-26T10:54:32;97558.84;;;18.44;31.24
10176;BME280;18221;38.704;0.152;2024-02-26T10:57:01;97550.19;;;18.42;31.34
10176;BME280;18221;38.704;0.152;2024-02-26T10:59:32;97530.59;;;18.35;31.49
10176;BME280;18221;38.704;0.152;2024-02-26T11:02:03;97528.75;;;18.36;31.40
10176;BME280;18221;38.704;0.152;2024-02-26T11:04:32;97526.75;;;18.49;31.48
10176;BME280;18221;38.704;0.152;2024-02-26T11:07:01;97534.22;;;18.47;31.36
10176;BME280;18221;38.704;0.152;2024-02-26T11:09:29;97537.31;;;18.81;31.29
10176;BME280;18221;38.704;0.152;2024-02-26T11:12:00;97531.00;;;18.57;31.09
10176;BME280;18221;38.704;0.152;2024-02-26T11:14:30;97513.38;;;18.61;31.38
10176;BME280;18221;38.704;0.152;2024-02-26T11:17:00;97506.88;;;18.69;30.97
10176;BME280;18221;38.704;0.152;2024-02-26T11:19:30;97506.31;;;18.78;30.97
10176;BME280;18221;38.704;0.152;2024-02-26T11:22:01;97505.66;;;18.65;30.90
10176;BME280;18221;38.704;0.152;2024-02-26T11:24:29;97475.84;;;18.18;31.25
10176;BME280;18221;38.704;0.152;2024-02-26T11:27:02;97473.56;;;18.52;31.08
10176;BME280;18221;38.704;0.152;2024-02-26T11:29:50;97467.38;;;18.81;30.77
10176;BME280;18221;38.704;0.152;2024-02-26T11:32:18;97445.63;;;18.71;30.76
10176;BME280;18221;38.704;0.152;2024-02-26T11:34:47;97457.91;;;18.78;30.72
10176;BME280;18221;38.704;0.152;2024-02-26T11:37:16;97445.16;;;18.74;30.82
10176;BME280;18221;38.704;0.152;2024-02-26T11:39:46;97430.56;;;18.52;31.02
10176;BME280;18221;38.704;0.152;2024-02-26T11:42:16;97424.94;;;18.71;30.68
10176;BME280;18221;38.704;0.152;2024-02-26T11:44:45;97437.03;;;18.92;30.23
10176;BME280;18221;38.704;0.152;2024-02-26T11:47:13;97404.81;;;18.74;30.51
10176;BME280;18221;38.704;0.152;2024-02-26T11:49:41;97417.94;;;18.82;30.71
10176;BME280;18221;38.704;0.152;2024-02-26T11:52:10;97405.00;;;19.02;30.55
10176;BME280;18221;38.704;0.152;2024-02-26T11:54:46;97397.66;;;19.21;30.03
10176;BME280;18221;38.704;0.152;2024-02-26T11:57:24;97412.50;;;19.35;29.62
10176;BME280;18221;38.704;0.152;2024-02-26T11:59:52;97398.13;;;19.18;28.82
10176;BME280;18221;38.704;0.152;2024-02-26T12:02:40;97388.56;;;19.45;28.44
10176;BME280;18221;38.704;0.152;2024-02-26T12:05:11;97387.72;;;19.67;28.23
10176;BME280;18221;38.704;0.152;2024-02-26T12:07:43;97397.28;;;19.87;28.01
10176;BME280;18221;38.704;0.152;2024-02-26T12:10:33;97406.69;;;19.73;28.17
10176;BME280;18221;38.704;0.152;2024-02-26T12:13:08;97396.72;;;19.61;27.81
10176;BME280;18221;38.704;0.152;2024-02-26T12:15:39;97389.94;;;19.59;27.82
10176;BME280;18221;38.704;0.152;2024-02-26T12:18:08;97401.50;;;19.83;27.56
10176;BME280;18221;38.704;0.152;2024-02-26T12:20:37;97385.09;;;19.96;27.17
10176;BME280;18221;38.704;0.152;2024-02-26T12:23:05;97392.13;;;19.85;27.12
10176;BME280;18221;38.704;0.152;2024-02-26T12:25:33;97386.59;;;20.03;27.09
10176;BME280;18221;38.704;0.152;2024-02-26T12:28:01;97398.66;;;20.01;27.20
10176;BME280;18221;38.704;0.152;2024-02-26T12:30:31;97377.16;;;19.89;27.39
10176;BME280;18221;38.704;0.152;2024-02-26T12:32:59;97384.97;;;19.91;27.64
10176;BME280;18221;38.704;0.152;2024-02-26T12:35:28;97379.44;;;19.97;27.26
10176;BME280;18221;38.704;0.152;2024-02-26T12:37:58;97374.84;;;20.09;27.35
10176;BME280;18221;38.704;0.152;2024-02-26T12:40:26;97365.94;;;20.09;27.15
10176;BME280;18221;38.704;0.152;2024-02-26T12:42:54;97373.22;;;20.08;27.36
10176;BME280;18221;38.704;0.152;2024-02-26T12:45:22;97388.81;;;19.95;27.04
10176;BME280;18221;38.704;0.152;2024-02-26T12:47:52;97392.13;;;19.85;27.61
10176;BME280;18221;38.704;0.152;2024-02-26T12:50:20;97391.63;;;20.00;28.13
10176;BME280;18221;38.704;0.152;2024-02-26T12:52:48;97390.81;;;19.99;27.97
10176;BME280;18221;38.704;0.152;2024-02-26T12:55:19;97375.72;;;19.87;27.89
10176;BME280;18221;38.704;0.152;2024-02-26T12:57:48;97369.38;;;19.93;27.63
10176;BME280;18221;38.704;0.152;2024-02-26T13:00:21;97369.59;;;20.03;27.59
10176;BME280;18221;38.704;0.152;2024-02-26T13:02:53;97358.06;;;20.19;27.59
10176;BME280;18221;38.704;0.152;2024-02-26T13:05:23;97357.88;;;20.09;27.81
10176;BME280;18221;38.704;0.152;2024-02-26T13:07:52;97344.91;;;20.34;27.18
10176;BME280;18221;38.704;0.152;2024-02-26T13:10:20;97328.88;;;20.27;26.77
10176;BME280;18221;38.704;0.152;2024-02-26T13:12:50;97314.84;;;20.14;26.19
10176;BME280;18221;38.704;0.152;2024-02-26T13:15:19;97318.31;;;20.26;26.65
10176;BME280;18221;38.704;0.152;2024-02-26T13:17:49;97315.09;;;20.12;25.94